createdAt,value
2023-02-05T00:06:03.141Z,101438.16
2023-02-05T00:08:35.028Z,101429.34
2023-02-05T00:14:08.608Z,101436.59
2023-02-05T00:19:42.846Z,101433.00
2023-02-05T00:25:26.151Z,101444.66
2023-02-05T00:27:55.349Z,101449.22
2023-02-05T00:30:46.500Z,101448.84
2023-02-05T00:38:50.861Z,101459.13
2023-02-05T00:41:21.336Z,101458.25
2023-02-05T00:43:49.707Z,101451.03
2023-02-05T00:46:24.206Z,101448.72
2023-02-05T00:54:21.117Z,101449.56
2023-02-05T00:56:55.022Z,101451.72
2023-02-05T00:59:28.231Z,101450.44
2023-02-05T01:02:00.133Z,101448.25
2023-02-05T01:04:33.644Z,101453.50
2023-02-05T01:07:04.278Z,101449.59
2023-02-05T01:09:35.781Z,101447.56
2023-02-05T01:12:05.802Z,101446.09
2023-02-05T01:14:35.957Z,101447.63
2023-02-05T01:17:06.456Z,101452.03
2023-02-05T01:19:37.733Z,101453.88
2023-02-05T01:22:06.983Z,101456.91
2023-02-05T01:24:40.861Z,101451.41
2023-02-05T01:27:13.284Z,101451.09
2023-02-05T01:29:55.841Z,101452.03
2023-02-05T01:35:11.242Z,101458.66
2023-02-05T01:37:39.806Z,101459.13
2023-02-05T01:40:16.133Z,101446.88
2023-02-05T01:42:47.348Z,101450.53
2023-02-05T01:45:24.397Z,101448.31
2023-02-05T01:47:59.338Z,101455.13
2023-02-05T01:50:52.723Z,101456.63
2023-02-05T01:53:28.420Z,101464.03
2023-02-05T01:56:03.291Z,101465.22
2023-02-05T01:58:40.897Z,101458.97
2023-02-05T02:10:49.378Z,101459.47
2023-02-05T02:13:22.352Z,101458.16
2023-02-05T02:16:01.772Z,101459.00
2023-02-05T02:18:44.129Z,101462.72
2023-02-05T02:27:47.603Z,101461.81
2023-02-05T02:30:33.871Z,101464.06
2023-02-05T02:33:24.640Z,101468.00
2023-02-05T02:35:58.827Z,101464.88
2023-02-05T02:38:35.755Z,101464.41
2023-02-05T02:41:32.330Z,101458.13
2023-02-05T02:44:14.957Z,101469.75
2023-02-05T02:46:49.698Z,101455.78
2023-02-05T02:49:31.213Z,101459.56
2023-02-05T02:52:02.320Z,101454.63
2023-02-05T02:54:34.997Z,101452.88
2023-02-05T02:57:08.971Z,101458.00
2023-02-05T02:59:40.383Z,101458.16
2023-02-05T03:02:12.762Z,101468.19
2023-02-05T03:04:46.063Z,101468.19
2023-02-05T03:07:20.747Z,101471.41
2023-02-05T03:10:04.898Z,101466.34
2023-02-05T03:12:36.579Z,101464.88
2023-02-05T03:15:06.279Z,101469.94
2023-02-05T03:17:35.174Z,101468.91
2023-02-05T03:20:21.335Z,101476.94
2023-02-05T03:22:49.088Z,101468.97
2023-02-05T03:25:22.025Z,101465.97
2023-02-05T03:27:53.837Z,101467.69
2023-02-05T03:30:27.621Z,101467.94
2023-02-05T03:33:27.920Z,101466.59
2023-02-05T03:40:04.860Z,101476.09
2023-02-05T03:42:58.616Z,101478.66
2023-02-05T03:49:04.795Z,101472.25
2023-02-05T03:52:04.960Z,101481.91
2023-02-05T03:54:49.554Z,101484.19
2023-02-05T03:57:29.068Z,101482.81
2023-02-05T04:00:01.134Z,101482.75
2023-02-05T04:02:32.790Z,101484.47
2023-02-05T04:05:08.260Z,101489.72
2023-02-05T04:07:54.685Z,101490.34
2023-02-05T04:19:44.060Z,101504.03
2023-02-05T04:22:11.796Z,101504.19
2023-02-05T04:24:44.643Z,101502.00
2023-02-05T04:27:12.584Z,101504.34
2023-02-05T04:29:40.425Z,101500.56
2023-02-05T04:32:08.252Z,101503.13
2023-02-05T04:34:36.144Z,101503.00
2023-02-05T04:37:04.141Z,101510.16
2023-02-05T04:39:32.343Z,101505.22
2023-02-05T04:42:02.150Z,101512.78
2023-02-05T04:44:30.092Z,101513.50
2023-02-05T04:46:58.942Z,101511.53
2023-02-05T04:52:29.751Z,101518.50
2023-02-05T04:54:59.151Z,101526.69
2023-02-05T04:57:32.486Z,101521.06
2023-02-05T05:00:01.219Z,101527.94
2023-02-05T05:02:31.945Z,101532.66
2023-02-05T05:05:01.014Z,101532.97
2023-02-05T05:07:35.931Z,101532.72
2023-02-05T05:10:11.776Z,101530.41
2023-02-05T05:12:43.553Z,101537.16
2023-02-05T05:18:09.690Z,101536.56
2023-02-05T05:20:42.445Z,101537.72
2023-02-05T05:23:17.669Z,101549.13
2023-02-05T05:25:50.503Z,101545.91
2023-02-05T05:28:31.559Z,101544.53
2023-02-05T05:31:18.143Z,101550.75
2023-02-05T05:33:58.006Z,101555.09
2023-02-05T05:36:29.949Z,101554.91
2023-02-05T05:39:22.075Z,101556.28
2023-02-05T05:45:08.490Z,101565.47
2023-02-05T05:47:48.321Z,101565.47
2023-02-05T05:50:22.490Z,101570.66
2023-02-05T05:53:00.460Z,101574.06
2023-02-05T05:55:31.828Z,101574.47
2023-02-05T05:58:02.112Z,101579.22
2023-02-05T06:03:29.349Z,101567.50
2023-02-05T06:06:15.692Z,101571.88
2023-02-05T06:11:42.925Z,101575.91
2023-02-05T06:14:13.030Z,101578.16
2023-02-05T06:16:46.720Z,101579.25
2023-02-05T06:19:14.750Z,101575.91
2023-02-05T06:21:42.733Z,101577.03
2023-02-05T06:24:10.487Z,101579.72
2023-02-05T06:26:38.303Z,101583.44
2023-02-05T06:29:09.657Z,101590.88
2023-02-05T06:31:37.355Z,101590.88
2023-02-05T06:34:07.468Z,101592.41
2023-02-05T06:36:36.871Z,101602.22
2023-02-05T06:39:06.246Z,101602.22
2023-02-05T06:41:34.599Z,101608.66
2023-02-05T06:44:08.328Z,101613.00
2023-02-05T06:46:36.996Z,101616.78
2023-02-05T06:49:05.930Z,101617.75
2023-02-05T06:51:37.340Z,101620.19
2023-02-05T06:54:05.131Z,101622.25
2023-02-05T06:56:33.618Z,101625.38
2023-02-05T06:59:02.143Z,101628.66
2023-02-05T07:01:30.692Z,101619.59
2023-02-05T07:03:58.783Z,101625.78
2023-02-05T07:06:26.977Z,101629.06
2023-02-05T07:08:56.517Z,101632.09
2023-02-05T07:11:24.722Z,101637.25
2023-02-05T07:13:52.755Z,101631.38
2023-02-05T07:56:29.227Z,101647.78
2023-02-05T08:04:57.763Z,101651.19
2023-02-05T08:07:27.000Z,101663.28
2023-02-05T08:09:58.384Z,101668.19
2023-02-05T08:18:19.384Z,101664.34
2023-02-05T08:20:51.765Z,101663.91
2023-02-05T08:23:20.571Z,101668.91
2023-02-05T08:25:49.170Z,101671.78
2023-02-05T08:28:17.637Z,101675.94
2023-02-05T08:30:46.194Z,101670.97
2023-02-05T08:33:14.481Z,101672.22
2023-02-05T08:35:42.953Z,101674.16
2023-02-05T08:38:12.624Z,101669.91
2023-02-05T08:40:40.744Z,101668.16
2023-02-05T08:43:08.846Z,101666.06
2023-02-05T08:45:37.240Z,101668.09
2023-02-05T08:48:05.686Z,101668.09
2023-02-05T08:50:33.925Z,101672.78
2023-02-05T09:17:42.060Z,101666.41
2023-02-05T09:20:10.945Z,101668.00
2023-02-05T09:22:39.436Z,101678.44
2023-02-05T09:25:08.277Z,101672.59
2023-02-05T09:27:36.541Z,101665.44
2023-02-05T11:07:58.918Z,101689.84
2023-02-05T11:10:29.491Z,101685.91
2023-02-05T11:13:18.187Z,101688.44
2023-02-05T11:15:55.460Z,101692.38
2023-02-05T11:18:28.122Z,101686.25
2023-02-05T11:20:59.784Z,101699.16
2023-02-05T11:23:39.472Z,101693.63
2023-02-05T11:26:16.638Z,101686.84
2023-02-05T11:38:46.134Z,101693.09
2023-02-05T11:41:26.802Z,101698.13
2023-02-05T11:43:56.525Z,101696.09
2023-02-05T12:24:00.178Z,101717.75
2023-02-05T12:26:35.217Z,101714.25
2023-02-05T12:40:02.088Z,101734.34
2023-02-05T12:43:06.403Z,101727.53
2023-02-05T12:45:49.795Z,101727.72
2023-02-05T12:48:42.516Z,101730.09
2023-02-05T12:57:59.795Z,101739.19
2023-02-05T13:00:49.144Z,101731.56
2023-02-05T13:17:49.076Z,101731.75
2023-02-05T13:20:56.471Z,101750.03
2023-02-05T13:23:43.341Z,101744.22
2023-02-05T13:26:24.851Z,101741.22
2023-02-05T13:29:07.955Z,101749.34
2023-02-05T13:31:40.345Z,101748.00
2023-02-05T13:34:10.739Z,101750.47
2023-02-05T13:36:53.645Z,101756.72
2023-02-05T13:39:46.026Z,101756.00
2023-02-05T13:42:29.619Z,101761.06
2023-02-05T13:45:20.942Z,101760.03
2023-02-05T13:48:18.606Z,101756.34
2023-02-05T13:51:20.640Z,101764.09
2023-02-05T13:54:12.843Z,101770.34
2023-02-05T14:14:18.099Z,101775.06
2023-02-05T14:16:50.054Z,101777.72
2023-02-05T14:19:23.226Z,101775.81
2023-02-05T14:22:10.240Z,101778.44
2023-02-05T14:24:41.624Z,101785.19
2023-02-05T14:27:29.266Z,101792.19
2023-02-05T14:29:59.880Z,101786.19
2023-02-05T14:32:27.649Z,101789.06
2023-02-05T14:35:27.442Z,101785.28
2023-02-05T14:38:03.377Z,101789.91
2023-02-05T14:40:35.973Z,101796.78
2023-02-05T14:43:31.483Z,101795.06
2023-02-05T14:46:06.888Z,101800.06
2023-02-05T14:48:46.924Z,101799.03
2023-02-05T14:51:26.000Z,101807.44
2023-02-05T14:54:00.633Z,101795.41
2023-02-05T14:56:37.873Z,101800.53
2023-02-05T14:59:30.172Z,101804.53
2023-02-05T15:02:00.190Z,101800.97
2023-02-05T15:04:34.361Z,101806.94
2023-02-05T15:07:15.135Z,101811.53
2023-02-05T15:09:46.271Z,101815.22
2023-02-05T15:12:54.179Z,101817.59
2023-02-05T15:15:42.566Z,101820.06
2023-02-05T15:21:53.714Z,101820.41
2023-02-05T15:39:41.376Z,101832.38
2023-02-05T15:42:15.941Z,101825.53
2023-02-05T15:44:43.955Z,101832.78
2023-02-05T15:51:11.021Z,101835.00
2023-02-05T15:56:44.692Z,101836.97
2023-02-05T15:59:42.177Z,101839.63
2023-02-05T16:15:14.081Z,101847.63
2023-02-05T16:18:05.424Z,101856.41
2023-02-05T16:20:45.745Z,101833.75
2023-02-05T16:33:11.476Z,101844.66
2023-02-05T16:35:46.710Z,101844.56
2023-02-05T16:38:21.664Z,101850.53
2023-02-05T16:44:31.192Z,101845.50
2023-02-05T17:06:21.858Z,101842.00
2023-02-05T17:09:00.081Z,101843.09
2023-02-05T17:25:21.193Z,101860.50
2023-02-05T17:27:49.885Z,101856.22
2023-02-05T17:30:19.259Z,101859.81
2023-02-05T17:32:50.795Z,101859.97
2023-02-05T17:35:27.246Z,101858.38
2023-02-05T17:37:55.275Z,101860.81
2023-02-05T17:40:23.860Z,101858.97
2023-02-05T17:42:52.785Z,101865.88
2023-02-05T17:45:24.752Z,101869.22
2023-02-05T17:47:53.659Z,101866.75
2023-02-05T17:50:22.199Z,101871.78
2023-02-05T17:52:52.494Z,101873.81
2023-02-05T17:55:22.033Z,101882.69
2023-02-05T17:57:50.433Z,101880.81
2023-02-05T18:00:24.292Z,101884.47
2023-02-05T18:03:12.841Z,101892.31
2023-02-05T18:06:15.796Z,101884.56
2023-02-05T18:11:31.477Z,101878.25
2023-02-05T18:14:24.147Z,101878.25
2023-02-05T18:16:59.241Z,101891.31
2023-02-05T18:19:29.915Z,101889.84
2023-02-05T18:25:02.514Z,101886.63
2023-02-05T18:27:31.661Z,101894.03
2023-02-05T18:30:01.067Z,101878.94
2023-02-05T18:32:30.436Z,101892.25
2023-02-05T18:34:59.441Z,101889.50
2023-02-05T18:40:15.347Z,101885.75
2023-02-05T18:42:48.280Z,101885.94
2023-02-05T18:45:16.732Z,101886.59
2023-02-05T18:47:45.133Z,101884.22
2023-02-05T18:50:13.204Z,101892.09
2023-02-05T18:52:41.052Z,101889.69
2023-02-05T18:55:09.427Z,101884.22
2023-02-05T18:57:37.324Z,101893.97
2023-02-05T19:00:06.760Z,101883.63
2023-02-05T19:02:37.910Z,101877.16
2023-02-05T19:05:07.097Z,101888.06
2023-02-05T19:07:39.446Z,101874.84
2023-02-05T19:10:11.864Z,101888.84
2023-02-05T19:12:39.958Z,101886.19
2023-02-05T19:15:09.395Z,101886.50
2023-02-05T19:17:37.770Z,101884.72
2023-02-05T19:20:06.808Z,101895.16
2023-02-05T19:22:35.448Z,101880.50
2023-02-05T19:25:03.337Z,101888.50
2023-02-05T19:27:34.030Z,101884.06
2023-02-05T19:30:04.500Z,101889.94
2023-02-05T19:32:36.035Z,101893.34
2023-02-05T19:35:06.925Z,101892.09
2023-02-05T19:40:22.430Z,101888.69
2023-02-05T19:42:51.514Z,101891.16
2023-02-05T19:45:29.401Z,101889.78
2023-02-05T19:47:58.591Z,101883.63
2023-02-05T19:50:29.282Z,101891.22
2023-02-05T19:59:11.236Z,101891.47
2023-02-05T20:01:43.949Z,101904.94
2023-02-05T20:13:47.103Z,101908.28
2023-02-05T20:19:29.460Z,101910.25
2023-02-05T20:21:57.463Z,101911.78
2023-02-05T20:24:26.096Z,101918.72
2023-02-05T20:33:18.618Z,101916.84
2023-02-05T20:35:47.597Z,101920.41
2023-02-05T20:38:19.073Z,101912.03
2023-02-05T20:40:47.959Z,101914.75
2023-02-05T20:43:15.885Z,101921.34
2023-02-05T20:45:43.952Z,101919.72
2023-02-05T20:48:22.842Z,101921.59
2023-02-05T20:51:24.780Z,101936.97
2023-02-05T20:56:59.542Z,101932.19
2023-02-05T21:08:12.943Z,101941.22
2023-02-05T21:10:41.441Z,101942.84
2023-02-05T21:13:13.872Z,101939.59
2023-02-05T21:18:52.760Z,101945.50
2023-02-05T21:21:36.602Z,101947.72
2023-02-05T21:24:18.980Z,101959.34
2023-02-05T21:26:49.129Z,101953.78
2023-02-05T21:29:20.770Z,101953.03
2023-02-05T21:31:53.283Z,101956.31
2023-02-05T21:37:31.191Z,101962.06
2023-02-05T21:40:08.968Z,101954.91
2023-02-05T21:42:37.481Z,101969.38
2023-02-05T21:45:06.372Z,101961.03
2023-02-05T21:47:35.712Z,101969.75
2023-02-05T21:52:55.484Z,101966.66
2023-02-05T21:55:32.093Z,101967.09
2023-02-05T21:58:02.999Z,101954.72
2023-02-05T22:00:39.794Z,101964.25
2023-02-05T22:03:09.749Z,101967.59
2023-02-05T22:05:39.560Z,101968.28
2023-02-05T22:08:11.747Z,101974.19
2023-02-05T22:10:42.185Z,101972.81
2023-02-05T22:13:10.006Z,101980.91
2023-02-05T22:15:38.263Z,101981.78
2023-02-05T22:18:06.548Z,101983.22
2023-02-05T22:20:34.411Z,101988.94
2023-02-05T22:23:02.326Z,101982.97
2023-02-05T22:25:35.450Z,101974.97
2023-02-05T22:28:16.091Z,101972.66
2023-02-05T22:34:01.094Z,101995.94
2023-02-05T22:36:36.122Z,101991.78
2023-02-05T22:39:20.174Z,101987.66
2023-02-05T22:41:58.644Z,101987.50
2023-02-05T22:44:26.522Z,101986.47
2023-02-05T22:46:54.586Z,101989.06
2023-02-05T22:49:22.523Z,102003.47
2023-02-05T22:51:52.447Z,102005.34
2023-02-05T22:54:20.458Z,101994.50
2023-02-05T22:56:48.893Z,102005.56
2023-02-05T22:59:16.743Z,102014.38
2023-02-05T23:01:46.560Z,102014.03
2023-02-05T23:04:18.696Z,102021.13
2023-02-05T23:06:57.392Z,102017.00
2023-02-05T23:09:25.754Z,102020.59
2023-02-05T23:11:56.848Z,102023.00
2023-02-05T23:14:26.420Z,102022.91
2023-02-05T23:16:57.634Z,102019.94
2023-02-05T23:19:33.037Z,102022.47
2023-02-05T23:22:02.470Z,102029.81
2023-02-05T23:24:38.638Z,102031.16
2023-02-05T23:27:09.544Z,102030.47
2023-02-05T23:29:38.909Z,102036.13
2023-02-05T23:32:13.577Z,102042.94
2023-02-05T23:34:42.486Z,102043.84
2023-02-05T23:37:12.509Z,102056.94
2023-02-05T23:39:41.666Z,102048.38
2023-02-05T23:42:11.089Z,102045.66
2023-02-05T23:44:38.950Z,102055.22
2023-02-05T23:47:06.905Z,102047.66
2023-02-05T23:49:35.625Z,102048.88
2023-02-05T23:52:04.585Z,102060.50
2023-02-05T23:54:37.629Z,102052.56
2023-02-05T23:57:07.848Z,102055.22
2023-02-05T23:59:37.251Z,102057.03
